createdAt,value
2019-04-26T00:00:57.755Z,1.90
2019-04-26T00:03:31.187Z,2.02
2019-04-26T00:06:14.454Z,2.33
2019-04-26T00:08:47.848Z,2.00
2019-04-26T00:11:24.222Z,2.02
2019-04-26T00:14:09.861Z,2.50
2019-04-26T00:16:43.201Z,1.80
2019-04-26T00:19:14.459Z,2.10
2019-04-26T00:21:49.157Z,2.33
2019-04-26T00:24:21.479Z,2.27
2019-04-26T00:26:52.924Z,1.80
2019-04-26T00:29:24.335Z,1.80
2019-04-26T00:31:55.801Z,1.70
2019-04-26T00:34:27.246Z,1.80
2019-04-26T00:36:58.727Z,1.55
2019-04-26T00:39:31.160Z,1.72
2019-04-26T00:42:02.767Z,2.17
2019-04-26T00:44:37.858Z,1.60
2019-04-26T00:47:10.607Z,1.70
2019-04-26T00:49:44.012Z,1.70
2019-04-26T00:52:16.012Z,1.40
2019-04-26T00:54:48.069Z,1.60
2019-04-26T00:57:20.302Z,1.70
2019-04-26T00:59:52.453Z,1.52
2019-04-26T01:02:31.617Z,1.52
2019-04-26T01:05:02.988Z,1.52
2019-04-26T01:07:34.520Z,1.70
2019-04-26T01:10:07.381Z,1.50
2019-04-26T01:12:38.595Z,1.70
2019-04-26T01:15:10.562Z,1.30
2019-04-26T01:17:42.023Z,1.92
2019-04-26T01:20:14.374Z,1.90
2019-04-26T01:22:49.625Z,1.50
2019-04-26T01:25:38.419Z,2.10
2019-04-26T01:28:14.654Z,1.70
2019-04-26T01:30:46.712Z,1.72
2019-04-26T01:33:18.774Z,1.60
2019-04-26T01:35:52.365Z,1.82
2019-04-26T01:38:23.790Z,1.70
2019-04-26T01:40:56.950Z,1.75
2019-04-26T01:43:39.866Z,1.70
2019-04-26T01:46:15.174Z,1.60
2019-04-26T01:49:10.847Z,1.90
2019-04-26T01:52:10.264Z,1.65
2019-04-26T01:54:44.774Z,1.70
2019-04-26T01:57:16.903Z,1.80
2019-04-26T01:59:53.324Z,1.80
2019-04-26T02:02:39.635Z,1.60
2019-04-26T02:05:25.907Z,2.05
2019-04-26T02:07:57.658Z,1.65
2019-04-26T02:10:29.182Z,1.50
2019-04-26T02:13:01.618Z,1.75
2019-04-26T02:15:34.472Z,1.57
2019-04-26T02:18:05.969Z,1.90
2019-04-26T02:21:16.370Z,1.85
2019-04-26T02:24:01.951Z,1.75
2019-04-26T02:26:35.566Z,2.00
2019-04-26T02:29:16.990Z,1.70
2019-04-26T02:31:52.298Z,2.12
2019-04-26T02:34:26.083Z,1.70
2019-04-26T02:37:01.577Z,1.60
2019-04-26T02:39:41.643Z,1.70
2019-04-26T02:42:26.661Z,1.80
2019-04-26T02:45:43.803Z,1.55
2019-04-26T02:48:22.695Z,1.98
2019-04-26T02:51:00.298Z,1.90
2019-04-26T02:54:06.298Z,1.95
2019-04-26T02:56:40.680Z,2.02
2019-04-26T02:59:16.661Z,1.80
2019-04-26T03:01:50.682Z,1.92
2019-04-26T03:04:24.476Z,1.82
2019-04-26T03:07:03.425Z,2.10
2019-04-26T03:09:38.727Z,1.90
2019-04-26T03:12:16.374Z,1.80
2019-04-26T03:15:12.203Z,1.70
2019-04-26T03:17:34.274Z,1.92
2019-04-26T03:20:15.163Z,1.90
2019-04-26T03:23:03.249Z,1.77
2019-04-26T03:25:54.442Z,1.70
2019-04-26T03:28:48.406Z,1.80
2019-04-26T03:31:27.050Z,1.80
2019-04-26T03:34:22.569Z,1.75
2019-04-26T03:37:44.531Z,1.67
2019-04-26T03:40:42.426Z,1.70
2019-04-26T03:43:27.298Z,1.70
2019-04-26T03:46:18.394Z,1.72
2019-04-26T03:49:37.403Z,1.75
2019-04-26T03:52:39.220Z,1.90
2019-04-26T03:55:31.547Z,1.80
2019-04-26T03:58:11.907Z,1.92
2019-04-26T04:01:02.545Z,1.90
2019-04-26T04:03:47.810Z,1.65
2019-04-26T04:06:24.557Z,1.80
2019-04-26T04:09:08.481Z,1.40
2019-04-26T04:11:49.175Z,1.60
2019-04-26T04:14:41.991Z,2.17
2019-04-26T04:17:28.189Z,1.90
2019-04-26T04:20:22.836Z,1.50
2019-04-26T04:23:27.452Z,1.55
2019-04-26T04:26:04.989Z,1.60
2019-04-26T04:28:48.272Z,1.98
2019-04-26T04:31:46.456Z,1.80
2019-04-26T04:34:35.255Z,1.67
2019-04-26T04:37:11.043Z,1.70
2019-04-26T04:40:07.896Z,2.05
2019-04-26T04:43:05.321Z,1.62
2019-04-26T04:46:17.252Z,1.50
2019-04-26T04:49:14.792Z,1.65
2019-04-26T04:52:02.307Z,1.50
2019-04-26T04:55:06.761Z,1.77
2019-04-26T04:58:00.073Z,1.70
2019-04-26T05:01:19.827Z,1.42
2019-04-26T05:04:23.643Z,1.62
2019-04-26T05:07:27.871Z,1.70
2019-04-26T05:10:17.664Z,1.22
2019-04-26T05:13:23.924Z,1.72
2019-04-26T05:16:38.005Z,1.50
2019-04-26T05:19:45.324Z,2.02
2019-04-26T05:22:30.457Z,1.85
2019-04-26T05:25:36.443Z,1.72
2019-04-26T05:28:39.189Z,1.87
2019-04-26T05:31:31.984Z,1.80
2019-04-26T05:34:30.292Z,1.90
2019-04-26T05:37:37.194Z,1.90
2019-04-26T05:41:00.256Z,1.90
2019-04-26T05:43:51.742Z,2.10
2019-04-26T05:46:37.630Z,1.75
2019-04-26T05:49:34.484Z,1.90
2019-04-26T05:52:46.826Z,2.27
2019-04-26T05:55:42.634Z,1.90
2019-04-26T05:59:01.594Z,1.90
2019-04-26T06:01:53.395Z,1.60
2019-04-26T06:05:08.577Z,1.57
2019-04-26T06:07:52.224Z,1.77
2019-04-26T06:10:43.528Z,1.82
2019-04-26T06:13:48.030Z,1.67
2019-04-26T06:16:50.511Z,1.80
2019-04-26T06:19:41.953Z,2.05
2019-04-26T06:22:42.562Z,2.33
2019-04-26T06:25:49.541Z,1.70
2019-04-26T06:28:30.003Z,2.00
2019-04-26T06:31:20.536Z,1.60
2019-04-26T06:33:56.617Z,1.87
2019-04-26T06:36:32.832Z,1.80
2019-04-26T06:39:16.834Z,1.90
2019-04-26T06:42:29.009Z,1.65
2019-04-26T06:45:27.856Z,2.00
2019-04-26T06:48:30.422Z,1.52
2019-04-26T06:51:24.256Z,1.75
2019-04-26T06:54:01.414Z,1.70
2019-04-26T06:57:07.898Z,1.80
2019-04-26T06:59:49.282Z,1.50
2019-04-26T07:02:57.426Z,1.67
2019-04-26T07:05:50.194Z,1.30
2019-04-26T07:08:39.304Z,1.50
2019-04-26T07:11:46.234Z,1.30
2019-04-26T07:14:37.117Z,1.35
2019-04-26T07:17:21.844Z,1.82
2019-04-26T07:20:31.551Z,1.60
2019-04-26T07:23:37.671Z,1.60
2019-04-26T07:26:28.567Z,1.70
2019-04-26T07:29:07.581Z,1.50
2019-04-26T07:32:16.015Z,1.75
2019-04-26T07:35:08.714Z,1.75
2019-04-26T07:38:18.018Z,1.77
2019-04-26T07:41:16.257Z,1.70
2019-04-26T07:44:31.720Z,2.00
2019-04-26T07:47:50.466Z,1.60
2019-04-26T07:51:06.534Z,1.95
2019-04-26T07:53:51.434Z,1.70
2019-04-26T07:56:27.429Z,2.00
2019-04-26T07:59:35.325Z,1.70
2019-04-26T08:02:41.078Z,1.72
2019-04-26T08:05:33.607Z,1.70
2019-04-26T08:08:10.912Z,1.60
2019-04-26T08:10:49.608Z,1.52
2019-04-26T08:13:24.535Z,1.50
2019-04-26T08:16:06.722Z,1.45
2019-04-26T08:18:44.209Z,1.27
2019-04-26T08:21:31.736Z,1.40
2019-04-26T08:24:10.011Z,1.50
2019-04-26T08:26:43.834Z,1.87
2019-04-26T08:29:18.804Z,2.15
2019-04-26T08:31:57.832Z,2.20
2019-04-26T08:34:33.803Z,2.22
2019-04-26T08:37:25.075Z,1.90
2019-04-26T08:40:01.181Z,1.20
2019-04-26T08:42:44.328Z,1.60
2019-04-26T08:45:19.573Z,1.37
2019-04-26T08:47:54.142Z,1.40
2019-04-26T08:50:42.273Z,1.40
2019-04-26T08:53:15.407Z,1.35
2019-04-26T08:55:49.334Z,1.25
2019-04-26T08:58:23.836Z,1.30
2019-04-26T09:01:00.270Z,1.15
2019-04-26T09:03:43.442Z,1.37
2019-04-26T09:06:28.296Z,0.90
2019-04-26T09:09:02.194Z,1.50
2019-04-26T09:11:36.776Z,1.10
2019-04-26T09:14:10.691Z,1.30
2019-04-26T09:16:50.110Z,1.50
2019-04-26T09:19:15.873Z,1.17
2019-04-26T09:21:55.943Z,1.30
2019-04-26T09:24:31.371Z,1.60
2019-04-26T09:27:04.549Z,1.30
2019-04-26T09:29:49.962Z,1.35
2019-04-26T09:32:29.428Z,1.27
2019-04-26T09:35:11.239Z,1.22
2019-04-26T09:37:50.943Z,1.40
2019-04-26T09:40:22.949Z,1.40
2019-04-26T09:43:04.889Z,1.10
2019-04-26T09:45:36.111Z,1.40
2019-04-26T09:48:09.254Z,1.42
2019-04-26T09:50:48.457Z,1.30
2019-04-26T09:53:20.074Z,1.57
2019-04-26T09:56:01.451Z,1.20
2019-04-26T09:58:32.958Z,1.62
2019-04-26T10:01:06.172Z,1.30
2019-04-26T10:03:37.610Z,1.57
2019-04-26T10:06:10.766Z,1.42
2019-04-26T10:08:47.086Z,1.50
2019-04-26T10:11:19.040Z,1.57
2019-04-26T10:13:54.842Z,1.50
2019-04-26T10:16:33.542Z,1.47
2019-04-26T10:19:08.523Z,1.35
2019-04-26T10:21:39.873Z,1.50
2019-04-26T10:24:11.335Z,1.45
2019-04-26T10:26:45.683Z,1.70
2019-04-26T10:29:17.278Z,1.50
2019-04-26T10:31:51.706Z,1.60
2019-04-26T10:34:21.562Z,1.30
2019-04-26T10:36:52.964Z,1.70
2019-04-26T10:39:24.728Z,1.67
2019-04-26T10:41:56.257Z,1.40
2019-04-26T10:44:29.241Z,1.55
2019-04-26T10:47:04.466Z,1.60
2019-04-26T10:49:44.516Z,1.70
2019-04-26T10:52:22.076Z,1.35
2019-04-26T10:55:07.192Z,1.47
2019-04-26T10:57:40.235Z,1.52
2019-04-26T11:00:30.174Z,1.50
2019-04-26T11:03:04.526Z,1.60
2019-04-26T11:05:35.149Z,1.50
2019-04-26T11:08:06.906Z,1.40
2019-04-26T11:10:48.502Z,1.42
2019-04-26T11:13:11.853Z,1.25
2019-04-26T11:15:43.238Z,1.40
2019-04-26T11:18:14.483Z,1.50
2019-04-26T11:20:46.705Z,1.50
2019-04-26T11:23:18.218Z,1.57
2019-04-26T11:25:49.640Z,1.70
2019-04-26T11:28:22.977Z,1.60
2019-04-26T11:30:57.362Z,1.57
2019-04-26T11:33:28.713Z,1.60
2019-04-26T11:36:03.424Z,1.77
2019-04-26T11:38:33.439Z,2.55
2019-04-26T11:41:06.608Z,2.20
2019-04-26T11:43:38.273Z,2.20
2019-04-26T11:46:09.757Z,1.50
2019-04-26T11:48:41.166Z,2.05
2019-04-26T11:51:12.532Z,2.40
2019-04-26T11:53:44.663Z,1.45
2019-04-26T11:56:16.549Z,1.70
2019-04-26T11:58:52.440Z,1.80
2019-04-26T12:01:23.771Z,1.37
2019-04-26T12:04:13.239Z,1.40
2019-04-26T12:06:48.997Z,1.55
2019-04-26T12:09:25.024Z,1.75
2019-04-26T12:12:04.572Z,1.50
2019-04-26T12:14:33.390Z,2.00
2019-04-26T12:17:05.508Z,1.40
2019-04-26T12:19:36.958Z,1.98
2019-04-26T12:22:09.890Z,2.17
2019-04-26T12:24:41.674Z,1.85
2019-04-26T12:27:14.353Z,2.60
2019-04-26T12:29:48.303Z,2.00
2019-04-26T12:32:20.620Z,2.12
2019-04-26T12:34:51.923Z,1.82
2019-04-26T12:37:23.283Z,1.95
2019-04-26T12:39:54.690Z,1.80
2019-04-26T12:42:26.192Z,2.33
2019-04-26T12:44:59.253Z,1.90
2019-04-26T12:47:44.524Z,1.85
2019-04-26T12:50:16.575Z,2.08
2019-04-26T12:52:57.357Z,2.00
2019-04-26T12:55:29.809Z,2.27
2019-04-26T12:58:01.179Z,2.30
2019-04-26T13:00:37.483Z,2.20
2019-04-26T13:03:19.774Z,2.30
2019-04-26T13:05:41.742Z,2.25
2019-04-26T13:08:16.875Z,1.80
2019-04-26T13:10:46.435Z,2.17
2019-04-26T13:13:28.492Z,2.20
2019-04-26T13:16:21.683Z,2.05
2019-04-26T13:18:51.787Z,1.92
2019-04-26T13:21:23.336Z,2.70
2019-04-26T13:23:54.702Z,2.67
2019-04-26T13:26:26.009Z,2.70
2019-04-26T13:28:58.779Z,2.50
2019-04-26T13:31:31.701Z,2.40
2019-04-26T13:34:05.617Z,2.30
2019-04-26T13:36:37.120Z,2.60
2019-04-26T13:39:13.423Z,2.55
2019-04-26T13:41:44.619Z,2.30
2019-04-26T13:44:18.842Z,2.20
2019-04-26T13:46:51.818Z,2.70
2019-04-26T13:49:28.539Z,3.17
2019-04-26T13:52:01.437Z,3.02
2019-04-26T13:54:37.243Z,3.50
2019-04-26T13:57:10.056Z,3.75
2019-04-26T13:59:45.200Z,4.33
2019-04-26T14:02:17.339Z,3.25
2019-04-26T14:04:49.320Z,3.22
2019-04-26T14:07:24.425Z,2.87
2019-04-26T14:09:53.981Z,3.35
2019-04-26T14:12:25.377Z,3.00
2019-04-26T14:14:56.731Z,2.80
2019-04-26T14:17:29.749Z,2.90
2019-04-26T14:20:01.201Z,2.55
2019-04-26T14:22:48.251Z,2.77
2019-04-26T14:25:21.534Z,2.70
2019-04-26T14:27:57.476Z,3.00
2019-04-26T14:30:28.841Z,2.60
2019-04-26T14:33:02.263Z,2.77
2019-04-26T14:35:33.907Z,2.45
2019-04-26T14:38:06.259Z,2.22
2019-04-26T14:40:42.780Z,2.30
2019-04-26T14:43:12.341Z,2.60
2019-04-26T14:45:55.360Z,4.70
2019-04-26T14:48:20.839Z,3.12
2019-04-26T14:50:53.386Z,7.42
2019-04-26T14:53:36.442Z,2.58
2019-04-26T15:00:44.771Z,2.70
2019-04-26T15:12:27.844Z,3.22
2019-04-26T15:15:08.279Z,3.12
2019-04-26T15:17:42.273Z,4.55
2019-04-26T15:20:16.817Z,2.83
2019-04-26T15:22:50.070Z,2.60
2019-04-26T15:25:21.785Z,3.02
2019-04-26T15:27:53.286Z,3.35
2019-04-26T15:30:29.087Z,2.87
2019-04-26T15:33:02.991Z,3.00
2019-04-26T15:35:35.878Z,2.95
2019-04-26T15:38:10.718Z,3.05
2019-04-26T15:40:56.664Z,2.83
2019-04-26T15:43:32.817Z,2.72
2019-04-26T15:46:13.921Z,2.15
2019-04-26T15:49:05.046Z,2.72
2019-04-26T15:51:39.361Z,2.37
2019-04-26T15:54:10.669Z,2.58
2019-04-26T15:56:49.277Z,2.92
2019-04-26T15:59:22.788Z,2.83
2019-04-26T16:01:56.373Z,2.60
2019-04-26T16:04:32.333Z,2.70
2019-04-26T16:07:02.838Z,2.62
2019-04-26T16:09:35.866Z,5.47
2019-04-26T16:12:07.593Z,2.50
2019-04-26T16:14:42.269Z,2.30
2019-04-26T16:17:17.267Z,2.30
2019-04-26T16:19:48.877Z,2.60
2019-04-26T16:22:20.178Z,2.20
2019-04-26T16:24:54.122Z,2.20
2019-04-26T16:27:31.165Z,2.22
2019-04-26T16:30:00.308Z,2.70
2019-04-26T16:32:54.167Z,2.08
2019-04-26T16:35:28.026Z,2.55
2019-04-26T16:38:00.120Z,2.02
2019-04-26T16:40:37.689Z,2.30
2019-04-26T16:43:09.068Z,2.33
2019-04-26T16:45:41.260Z,2.55
2019-04-26T16:48:13.574Z,2.27
2019-04-26T16:50:46.690Z,2.25
2019-04-26T16:53:37.696Z,2.40
2019-04-26T16:55:57.756Z,2.47
2019-04-26T16:58:30.870Z,2.60
2019-04-26T17:01:04.593Z,2.30
2019-04-26T17:03:38.170Z,2.20
2019-04-26T17:06:13.854Z,2.70
2019-04-26T17:08:49.858Z,2.20
2019-04-26T17:11:16.290Z,2.70
2019-04-26T17:13:51.506Z,2.42
2019-04-26T17:16:25.674Z,2.20
2019-04-26T17:18:59.674Z,2.35
2019-04-26T17:21:32.780Z,2.60
2019-04-26T17:24:05.898Z,2.72
2019-04-26T17:26:42.805Z,3.00
2019-04-26T17:29:16.320Z,2.60
2019-04-26T17:31:47.665Z,2.80
2019-04-26T17:34:22.554Z,2.72
2019-04-26T17:36:52.341Z,2.90
2019-04-26T17:39:23.939Z,2.90
2019-04-26T17:41:55.390Z,3.00
2019-04-26T17:44:28.572Z,2.85
2019-04-26T17:47:02.064Z,3.17
2019-04-26T17:49:35.008Z,3.37
2019-04-26T17:52:07.387Z,2.58
2019-04-26T17:54:47.563Z,3.30
2019-04-26T17:57:14.358Z,3.15
2019-04-26T17:59:47.792Z,3.00
2019-04-26T18:02:37.917Z,3.00
2019-04-26T18:04:58.850Z,3.15
2019-04-26T18:07:39.562Z,3.52
2019-04-26T18:10:02.318Z,3.12
2019-04-26T18:12:32.687Z,3.58
2019-04-26T18:15:09.352Z,2.90
2019-04-26T18:17:40.086Z,4.85
2019-04-26T18:20:28.098Z,3.35
2019-04-26T18:23:18.559Z,3.00
2019-04-26T18:25:50.519Z,3.10
2019-04-26T18:28:26.791Z,3.00
2019-04-26T18:30:59.799Z,2.80
2019-04-26T18:33:32.938Z,2.98
2019-04-26T18:36:07.200Z,3.50
2019-04-26T18:38:42.538Z,3.70
2019-04-26T18:41:13.641Z,3.45
2019-04-26T18:43:45.329Z,3.20
2019-04-26T18:46:21.232Z,3.47
2019-04-26T18:48:53.469Z,3.55
2019-04-26T18:51:26.505Z,3.77
2019-04-26T18:54:17.855Z,3.50
2019-04-26T18:56:55.198Z,3.60
2019-04-26T18:59:27.980Z,3.42
2019-04-26T19:02:00.474Z,3.50
2019-04-26T19:04:33.478Z,3.47
2019-04-26T19:07:12.167Z,3.60
2019-04-26T19:09:56.635Z,3.35
2019-04-26T19:12:18.397Z,3.35
2019-04-26T19:15:11.337Z,3.60
2019-04-26T19:17:54.682Z,4.25
2019-04-26T19:20:37.329Z,3.75
2019-04-26T19:23:09.490Z,4.05
2019-04-26T19:25:41.432Z,3.70
2019-04-26T19:28:23.811Z,3.92
2019-04-26T19:30:55.430Z,3.80
2019-04-26T19:33:26.872Z,3.75
2019-04-26T19:35:58.281Z,3.98
2019-04-26T19:38:29.739Z,4.35
2019-04-26T19:41:02.678Z,4.45
2019-04-26T19:43:35.269Z,4.60
2019-04-26T19:46:16.941Z,4.47
2019-04-26T19:49:06.207Z,4.20
2019-04-26T19:51:56.623Z,4.17
2019-04-26T19:54:38.163Z,4.15
2019-04-26T19:57:13.989Z,4.33
2019-04-26T19:59:45.419Z,4.15
2019-04-26T20:02:17.019Z,4.08
2019-04-26T20:04:48.472Z,4.37
2019-04-26T20:07:19.843Z,4.10
2019-04-26T20:09:52.483Z,4.33
2019-04-26T20:12:25.305Z,4.40
2019-04-26T20:14:58.547Z,4.45
2019-04-26T20:17:30.520Z,4.10
2019-04-26T20:20:02.120Z,4.10
2019-04-26T20:22:35.250Z,4.67
2019-04-26T20:25:07.318Z,3.85
2019-04-26T20:27:41.313Z,4.60
2019-04-26T20:30:27.568Z,4.83
2019-04-26T20:32:59.184Z,4.40
2019-04-26T20:35:31.874Z,4.67
2019-04-26T20:38:04.883Z,5.22
2019-04-26T20:40:36.606Z,4.50
2019-04-26T20:43:20.927Z,4.33
2019-04-26T20:46:07.928Z,4.58
2019-04-26T20:48:18.002Z,4.90
2019-04-26T20:50:52.006Z,4.65
2019-04-26T20:53:23.992Z,4.20
2019-04-26T20:55:55.491Z,5.00
2019-04-26T20:58:27.187Z,4.62
2019-04-26T21:00:58.651Z,4.62
2019-04-26T21:03:32.073Z,4.60
2019-04-26T21:06:03.333Z,4.65
2019-04-26T21:08:35.402Z,4.78
2019-04-26T21:11:07.110Z,4.25
2019-04-26T21:13:38.641Z,4.55
2019-04-26T21:16:13.261Z,4.15
2019-04-26T21:18:44.436Z,3.87
2019-04-26T21:21:16.546Z,4.72
2019-04-26T21:23:54.016Z,4.15
2019-04-26T21:26:46.571Z,4.70
2019-04-26T21:29:24.495Z,4.80
2019-04-26T21:32:03.669Z,4.42
2019-04-26T21:34:44.987Z,4.58
2019-04-26T21:37:34.438Z,4.90
2019-04-26T21:40:22.263Z,3.98
2019-04-26T21:42:47.784Z,4.62
2019-04-26T21:45:21.669Z,3.95
2019-04-26T21:47:54.199Z,4.03
2019-04-26T21:50:25.479Z,4.30
2019-04-26T21:53:05.193Z,4.28
2019-04-26T21:55:38.664Z,4.20
2019-04-26T21:58:10.380Z,4.05
2019-04-26T22:00:47.828Z,4.45
2019-04-26T22:03:20.929Z,4.10
2019-04-26T22:05:54.205Z,4.17
2019-04-26T22:08:27.340Z,4.53
2019-04-26T22:10:59.001Z,4.65
2019-04-26T22:13:44.791Z,4.15
2019-04-26T22:16:32.020Z,4.12
2019-04-26T22:19:12.755Z,4.83
2019-04-26T22:21:46.822Z,4.50
2019-04-26T22:24:19.898Z,4.12
2019-04-26T22:26:51.267Z,4.45
2019-04-26T22:29:23.031Z,4.50
2019-04-26T22:31:54.833Z,3.83
2019-04-26T22:34:26.369Z,3.42
2019-04-26T22:37:01.865Z,3.85
2019-04-26T22:39:32.702Z,3.02
2019-04-26T22:42:04.066Z,2.80
2019-04-26T22:44:36.938Z,2.80
2019-04-26T22:47:10.174Z,2.80
2019-04-26T22:49:45.119Z,2.70
2019-04-26T22:52:16.476Z,2.60
2019-04-26T22:54:47.940Z,2.77
2019-04-26T22:57:19.492Z,2.87
2019-04-26T22:59:50.864Z,2.25
2019-04-26T23:02:23.533Z,2.22
2019-04-26T23:04:56.005Z,1.90
2019-04-26T23:07:28.711Z,2.25
2019-04-26T23:09:59.963Z,2.10
2019-04-26T23:12:33.882Z,1.62
2019-04-26T23:15:13.446Z,1.47
2019-04-26T23:17:44.594Z,1.95
2019-04-26T23:20:17.631Z,2.00
2019-04-26T23:22:49.006Z,2.20
2019-04-26T23:25:20.234Z,1.98
2019-04-26T23:27:55.117Z,2.05
2019-04-26T23:30:27.695Z,2.33
2019-04-26T23:32:59.912Z,2.85
2019-04-26T23:35:37.766Z,2.92
2019-04-26T23:38:05.479Z,2.90
2019-04-26T23:40:36.964Z,2.10
2019-04-26T23:43:08.339Z,2.40
2019-04-26T23:45:43.553Z,2.67
2019-04-26T23:48:13.409Z,2.40
2019-04-26T23:50:45.086Z,2.40
2019-04-26T23:53:20.161Z,2.45
2019-04-26T23:55:49.691Z,2.25
2019-04-26T23:58:21.065Z,2.35
